• Join FlightAware (Why Join?)
  • Login
  • US Flag 
Trick or treat! (Boo!!) 
09:49AM EDT


 

Airport Tracker/Info


-or-


 

Live Flight TrackerFlight Track Log ✈ N6711L ✈ 03-Oct-2013 ✈ KEYW - KAPF

Flight Track Log - Related Links

Times and Time Zones

All times are in EDT time to prevent confusion due to time zone crossing. See the N6711L flight status page for this flight to view local times or setup timezone preferences in your user account.

Time Position Orientation Groundspeed Altitude Reporting Facility
EDT Latitude Longitude Course Direction KTS MPH feet Rate Location/Type
10:41AM 24.8272 -81.7623 37° Northeast  Level Estimated
10:42AM 24.8545 -81.7226 53° Northeast  Level FlightAware Approximate
10:43AM 24.8819 -81.6830 53° Northeast  Level FlightAware Approximate
10:43AM 24.8161 -81.6383 43° Northeast 180 207 6,100  Level Miami Center
10:44AM 24.9092 -81.6433 53° Northeast  Level FlightAware Approximate
10:44AM 24.8528 -81.6008 43° Northeast 175 201 6,100  Level Miami Center
10:45AM 24.9542 -81.6480 339° North  Level Estimated
10:45AM 24.8894 -81.5681 39° Northeast 175 201 6,200  Level Miami Center
10:46AM 24.9993 -81.6454 North  Level FlightAware Approximate
10:46AM 24.9303 -81.5353 36° Northeast 175 201 6,100  Level Miami Center
10:47AM 24.9764 -81.5231 14° North 169 194 6,100  Level Miami Center
10:48AM 25.0267 -81.5206 North 164 189 6,100  Level Miami Center
10:49AM 25.0769 -81.5200 North 174 200 6,100  Level Miami Center
10:50AM 25.1269 -81.5197 360° North 174 200 6,200  Climbing Miami Center
10:51AM 25.1667 -81.5189 North 174 200 6,100 -60 Descending Miami Center
10:52AM 25.2272 -81.5189 360° North 174 200 6,100  Level Miami Center
10:53AM 25.2772 -81.5231 356° North 179 206 6,100  Level Miami Center
10:54AM 25.3247 -81.5411 341° North 179 206 6,100  Level Miami Center
10:55AM 25.3744 -81.5544 346° North 179 206 6,100  Level Miami Center
10:56AM 25.4178 -81.5700 342° North 184 212 6,100  Level Miami Center
10:57AM 25.4675 -81.5833 346° North 184 212 6,200  Climbing Miami Center
10:58AM 25.5150 -81.5967 346° North 184 212 6,200  Level Miami Center
10:59AM 25.5689 -81.6103 347° North 184 212 6,200  Level Miami Center
11:00AM 25.6164 -81.6239 346° North 184 212 6,200 -480 Level Miami Center
11:01AM 25.6683 -81.6372 347° North 184 212 5,300 -540 Descending Miami Center
11:02AM 25.7136 -81.6553 340° North 184 212 5,200 -660 Descending Miami Center
11:03AM 25.7861 -81.6697 350° North 169 194 3,900 -960 Descending Miami Center
11:04AM 25.8361 -81.6739 356° North 169 194 3,200 -720 Descending Miami Center
11:05AM 25.8922 -81.6831 352° North 187 215 2,500 -720 Descending Miami Center
11:06AM 25.9442 -81.6944 349° North 192 221 1,800 -300 Descending Miami Center
11:07AM 25.9939 -81.6989 355° North 185 213 1,900  Climbing Miami Center
11:08AM 26.0394 -81.7144 343° North 168 193 1,800 -180 Descending Miami Center
11:09AM 26.0761 -81.7439 324° Northwest 162 186 1,600 -240 Descending Miami Center
11:11AM 26.1384 -81.7631 345° North  Level FlightAware Approximate
11:18AM 26.1500 -81.7667 340° North  Level FlightAware Approximate
11:19AM 26.1524 -81.7756 340° North  Level Estimated